createdAt,value
2019-02-10T00:01:18.953Z,69.44
2019-02-10T00:03:47.595Z,69.75
2019-02-10T00:06:24.331Z,69.89
2019-02-10T00:08:46.635Z,69.99
2019-02-10T00:11:15.238Z,70.55
2019-02-10T00:13:43.859Z,70.97
2019-02-10T00:16:20.057Z,71.19
2019-02-10T00:18:48.648Z,71.44
2019-02-10T00:21:17.265Z,71.74
2019-02-10T00:23:45.915Z,71.94
2019-02-10T00:26:14.551Z,71.39
2019-02-10T00:28:43.195Z,71.93
2019-02-10T00:31:11.813Z,72.46
2019-02-10T00:33:40.470Z,72.34
2019-02-10T00:36:09.106Z,72.03
2019-02-10T00:38:37.700Z,71.84
2019-02-10T00:41:06.293Z,70.56
2019-02-10T00:43:34.893Z,70.56
2019-02-10T00:46:03.503Z,70.49
2019-02-10T00:48:32.123Z,69.37
2019-02-10T00:51:00.792Z,69.20
2019-02-10T00:53:29.351Z,69.14
2019-02-10T00:55:57.922Z,68.78
2019-02-10T00:58:26.539Z,68.33
2019-02-10T01:00:55.155Z,68.62
2019-02-10T01:03:24.094Z,68.08
2019-02-10T01:05:52.718Z,67.61
2019-02-10T01:08:21.403Z,68.02
2019-02-10T01:10:50.026Z,68.12
2019-02-10T01:13:18.604Z,67.64
2019-02-10T01:15:47.182Z,66.97
2019-02-10T01:18:15.818Z,67.75
2019-02-10T01:20:44.425Z,69.04
2019-02-10T01:23:12.992Z,69.89
2019-02-10T01:25:41.587Z,70.27
2019-02-10T01:28:10.180Z,70.01
2019-02-10T01:30:38.822Z,69.98
2019-02-10T01:33:07.390Z,70.23
2019-02-10T01:35:35.988Z,70.52
2019-02-10T01:38:04.857Z,70.90
2019-02-10T01:40:33.479Z,70.75
2019-02-10T01:43:02.110Z,70.62
2019-02-10T01:45:30.788Z,70.45
2019-02-10T01:47:59.387Z,69.83
2019-02-10T01:50:27.997Z,68.56
2019-02-10T01:52:56.598Z,68.48
2019-02-10T01:55:25.253Z,68.15
2019-02-10T01:57:53.944Z,68.38
2019-02-10T02:00:22.598Z,68.08
2019-02-10T02:02:51.171Z,67.90
2019-02-10T02:05:19.753Z,67.73
2019-02-10T02:07:48.383Z,67.78
2019-02-10T02:10:16.999Z,67.61
2019-02-10T02:12:45.673Z,68.33
2019-02-10T02:15:15.080Z,68.09
2019-02-10T02:17:43.749Z,67.89
2019-02-10T02:20:12.571Z,68.07
2019-02-10T02:22:41.204Z,68.17
2019-02-10T02:25:10.720Z,67.87
2019-02-10T02:27:39.297Z,67.95
2019-02-10T02:30:13.536Z,67.40
2019-02-10T02:32:42.067Z,67.19
2019-02-10T02:35:10.732Z,67.21
2019-02-10T02:37:39.325Z,66.97
2019-02-10T02:40:09.405Z,67.09
2019-02-10T02:42:38.046Z,66.62
2019-02-10T02:45:08.509Z,66.77
2019-02-10T02:47:37.103Z,66.38
2019-02-10T02:50:06.939Z,65.50
2019-02-10T02:52:35.569Z,65.39
2019-02-10T02:55:04.364Z,65.39
2019-02-10T02:57:33.064Z,65.56
2019-02-10T03:00:01.707Z,65.74
2019-02-10T03:02:30.321Z,65.80
2019-02-10T03:04:58.973Z,66.11
2019-02-10T03:07:27.607Z,66.35
2019-02-10T03:09:56.207Z,66.49
2019-02-10T03:12:24.764Z,66.67
2019-02-10T03:14:53.407Z,67.77
2019-02-10T03:17:22.058Z,68.63
2019-02-10T03:19:50.642Z,68.29
2019-02-10T03:22:19.205Z,69.34
2019-02-10T03:24:47.942Z,69.75
2019-02-10T03:27:16.530Z,70.34
2019-02-10T03:29:45.130Z,70.91
2019-02-10T03:32:13.871Z,70.84
2019-02-10T03:34:42.408Z,70.60
2019-02-10T03:37:10.978Z,70.56
2019-02-10T03:39:39.603Z,71.52
2019-02-10T03:42:08.260Z,71.74
2019-02-10T03:44:37.013Z,72.29
2019-02-10T03:47:05.611Z,73.73
2019-02-10T03:49:34.233Z,72.56
2019-02-10T03:52:02.837Z,71.98
2019-02-10T03:54:31.422Z,73.01
2019-02-10T03:57:00.026Z,72.61
2019-02-10T03:59:28.633Z,71.89
2019-02-10T04:01:57.317Z,72.91
2019-02-10T04:04:25.934Z,73.66
2019-02-10T04:06:54.548Z,73.85
2019-02-10T04:09:23.171Z,73.57
2019-02-10T04:11:51.791Z,73.84
2019-02-10T04:14:20.386Z,74.40
2019-02-10T04:16:48.985Z,74.79
2019-02-10T04:19:17.557Z,74.96
2019-02-10T04:21:46.216Z,74.87
2019-02-10T04:24:14.787Z,74.81
2019-02-10T04:26:43.419Z,75.12
2019-02-10T04:29:12.021Z,74.75
2019-02-10T04:31:40.622Z,75.43
2019-02-10T04:34:09.257Z,75.16
2019-02-10T04:36:37.851Z,74.65
2019-02-10T04:39:06.604Z,75.05
2019-02-10T04:41:35.259Z,75.48
2019-02-10T04:44:03.860Z,75.53
2019-02-10T04:46:32.480Z,75.17
2019-02-10T04:49:01.105Z,75.35
2019-02-10T04:51:29.805Z,75.92
2019-02-10T04:53:58.366Z,76.39
2019-02-10T04:56:26.998Z,76.82
2019-02-10T04:58:55.586Z,76.82
2019-02-10T05:01:24.168Z,76.85
2019-02-10T05:03:52.768Z,76.98
2019-02-10T05:06:21.378Z,77.13
2019-02-10T05:08:49.978Z,77.08
2019-02-10T05:11:18.558Z,76.96
2019-02-10T05:13:47.145Z,76.73
2019-02-10T05:16:15.789Z,77.48
2019-02-10T05:18:44.367Z,77.11
2019-02-10T05:21:13.027Z,77.38
2019-02-10T05:23:41.720Z,77.21
2019-02-10T05:26:10.455Z,77.16
2019-02-10T05:28:39.083Z,76.87
2019-02-10T05:31:07.644Z,77.00
2019-02-10T05:33:36.261Z,76.95
2019-02-10T05:36:05.219Z,77.08
2019-02-10T05:38:33.879Z,76.83
2019-02-10T05:41:02.470Z,76.75
2019-02-10T05:43:31.232Z,76.71
2019-02-10T05:45:59.889Z,76.79
2019-02-10T05:48:28.508Z,76.54
2019-02-10T05:50:57.104Z,76.29
2019-02-10T05:53:25.740Z,76.21
2019-02-10T05:55:54.327Z,75.75
2019-02-10T05:58:22.887Z,75.44
2019-02-10T06:00:51.489Z,75.58
2019-02-10T06:03:20.130Z,75.26
2019-02-10T06:05:48.692Z,75.00
2019-02-10T06:08:17.372Z,75.15
2019-02-10T06:10:45.951Z,74.80
2019-02-10T06:13:14.613Z,74.94
2019-02-10T06:15:43.192Z,74.99
2019-02-10T06:18:11.828Z,74.71
2019-02-10T06:20:40.480Z,74.83
2019-02-10T06:23:09.076Z,74.91
2019-02-10T06:25:37.654Z,74.43
2019-02-10T06:28:06.296Z,74.30
2019-02-10T06:30:34.887Z,74.25
2019-02-10T06:33:03.488Z,74.02
2019-02-10T06:35:32.101Z,73.79
2019-02-10T06:38:00.789Z,74.35
2019-02-10T06:40:29.430Z,73.87
2019-02-10T06:42:58.054Z,74.02
2019-02-10T06:45:26.665Z,73.76
2019-02-10T06:47:55.302Z,74.20
2019-02-10T06:50:23.951Z,73.91
2019-02-10T06:52:52.573Z,73.59
2019-02-10T06:55:21.211Z,73.51
2019-02-10T06:57:49.845Z,73.62
2019-02-10T07:00:36.610Z,73.67
2019-02-10T07:03:49.048Z,73.73
2019-02-10T07:06:17.685Z,73.58
2019-02-10T07:08:46.312Z,73.38
2019-02-10T07:11:15.016Z,72.97
2019-02-10T07:13:46.042Z,73.59
2019-02-10T07:16:37.680Z,73.48
2019-02-10T07:19:42.470Z,73.11
2019-02-10T07:23:00.680Z,73.06
2019-02-10T07:25:49.628Z,73.07
2019-02-10T07:28:46.819Z,73.36
2019-02-10T07:31:19.673Z,73.44
2019-02-10T07:34:11.005Z,73.36
2019-02-10T07:37:03.114Z,73.18
2019-02-10T07:39:54.553Z,73.53
2019-02-10T07:42:51.540Z,73.61
2019-02-10T07:45:38.299Z,73.05
2019-02-10T07:48:21.679Z,72.95
2019-02-10T07:51:12.622Z,73.05
2019-02-10T07:53:53.409Z,72.56
2019-02-10T07:57:18.805Z,73.17
2019-02-10T08:00:05.292Z,72.79
2019-02-10T08:03:21.637Z,73.41
2019-02-10T08:06:37.930Z,73.55
2019-02-10T08:09:53.744Z,73.19
2019-02-10T08:12:48.290Z,73.73
2019-02-10T08:16:01.255Z,73.59
2019-02-10T08:18:41.246Z,73.53
2019-02-10T08:21:32.260Z,73.43
2019-02-10T08:24:45.654Z,73.43
2019-02-10T08:28:07.809Z,72.90
2019-02-10T08:31:05.779Z,73.05
2019-02-10T08:33:41.948Z,72.89
2019-02-10T08:36:41.919Z,72.16
2019-02-10T08:39:50.930Z,72.27
2019-02-10T08:42:55.907Z,71.66
2019-02-10T08:45:43.902Z,71.84
2019-02-10T08:48:59.554Z,72.04
2019-02-10T08:52:06.802Z,71.48
2019-02-10T08:54:35.402Z,71.35
2019-02-10T08:57:04.049Z,70.83
2019-02-10T08:59:32.733Z,71.42
2019-02-10T09:02:01.356Z,71.09
2019-02-10T09:04:29.966Z,71.53
2019-02-10T09:06:59.413Z,70.98
2019-02-10T09:09:28.090Z,70.11
2019-02-10T09:11:56.746Z,70.63
2019-02-10T09:14:25.388Z,70.16
2019-02-10T09:16:53.995Z,70.23
2019-02-10T09:19:22.604Z,70.34
2019-02-10T09:21:51.221Z,71.17
2019-02-10T09:24:19.824Z,70.23
2019-02-10T09:26:48.464Z,69.71
2019-02-10T09:29:17.048Z,69.72
2019-02-10T09:31:45.666Z,69.72
2019-02-10T09:34:14.227Z,69.20
2019-02-10T09:36:42.859Z,69.96
2019-02-10T09:39:11.450Z,69.40
2019-02-10T09:41:40.046Z,69.61
2019-02-10T09:44:08.640Z,68.49
2019-02-10T09:46:37.256Z,68.73
2019-02-10T09:49:05.859Z,69.39
2019-02-10T09:51:34.457Z,69.55
2019-02-10T09:54:03.047Z,69.89
2019-02-10T09:56:31.632Z,69.21
2019-02-10T09:59:00.228Z,69.12
2019-02-10T10:01:28.869Z,68.69
2019-02-10T10:03:57.473Z,68.88
2019-02-10T10:06:26.056Z,69.32
2019-02-10T10:08:54.750Z,69.40
2019-02-10T10:11:23.333Z,69.27
2019-02-10T10:13:53.246Z,68.64
2019-02-10T10:16:21.750Z,69.07
2019-02-10T10:18:56.505Z,69.45
2019-02-10T10:21:25.097Z,69.54
2019-02-10T10:23:53.683Z,68.70
2019-02-10T10:26:22.283Z,68.11
2019-02-10T10:28:50.997Z,67.93
2019-02-10T10:31:19.636Z,67.95
2019-02-10T10:33:48.267Z,67.75
2019-02-10T10:36:16.898Z,68.35
2019-02-10T10:38:45.599Z,67.99
2019-02-10T10:41:14.191Z,67.21
2019-02-10T10:43:42.812Z,67.44
2019-02-10T10:46:11.539Z,66.70
2019-02-10T10:48:40.209Z,66.77
2019-02-10T10:51:08.809Z,66.95
2019-02-10T10:53:37.429Z,66.69
2019-02-10T10:56:06.028Z,66.51
2019-02-10T10:58:34.619Z,66.36
2019-02-10T11:01:03.222Z,66.80
2019-02-10T11:03:31.951Z,66.40
2019-02-10T11:06:00.556Z,67.28
2019-02-10T11:08:29.192Z,67.90
2019-02-10T11:10:57.879Z,68.01
2019-02-10T11:13:26.681Z,68.55
2019-02-10T11:15:57.176Z,67.99
2019-02-10T11:18:25.721Z,67.94
2019-02-10T11:20:54.321Z,68.09
2019-02-10T11:23:22.930Z,68.07
2019-02-10T11:25:51.527Z,67.90
2019-02-10T11:28:20.168Z,67.51
2019-02-10T11:30:48.799Z,67.23
2019-02-10T11:33:17.409Z,67.45
2019-02-10T11:35:45.999Z,67.89
2019-02-10T11:38:14.583Z,68.55
2019-02-10T11:40:43.205Z,69.10
2019-02-10T11:43:11.797Z,69.33
2019-02-10T11:45:40.374Z,69.52
2019-02-10T11:48:08.992Z,70.08
2019-02-10T11:50:37.566Z,69.74
2019-02-10T11:53:06.272Z,70.06
2019-02-10T11:55:34.933Z,70.02
2019-02-10T11:58:03.671Z,69.58
2019-02-10T12:00:32.268Z,70.42
2019-02-10T12:03:00.910Z,69.90
2019-02-10T12:05:29.988Z,68.68
2019-02-10T12:07:58.683Z,69.22
2019-02-10T12:10:27.294Z,69.84
2019-02-10T12:12:55.877Z,69.10
2019-02-10T12:15:25.198Z,69.92
2019-02-10T12:17:53.869Z,70.16
2019-02-10T12:20:22.550Z,69.79
2019-02-10T12:22:51.186Z,70.00
2019-02-10T12:25:19.824Z,69.47
2019-02-10T12:27:48.437Z,69.70
2019-02-10T12:30:17.237Z,69.80
2019-02-10T12:32:46.071Z,68.75
2019-02-10T12:35:14.682Z,69.32
2019-02-10T12:37:45.029Z,68.85
2019-02-10T12:40:13.832Z,69.08
2019-02-10T12:42:42.557Z,69.77
2019-02-10T12:45:11.267Z,70.36
2019-02-10T12:47:39.938Z,70.14
2019-02-10T12:50:09.697Z,70.13
2019-02-10T12:52:38.312Z,69.88
2019-02-10T12:55:06.952Z,70.45
2019-02-10T12:57:35.569Z,70.44
2019-02-10T13:00:04.889Z,70.66
2019-02-10T13:02:33.545Z,70.86
2019-02-10T13:05:02.164Z,71.64
2019-02-10T13:07:30.781Z,71.93
2019-02-10T13:09:59.418Z,73.89
2019-02-10T13:12:27.978Z,74.31
2019-02-10T13:14:56.612Z,75.89
2019-02-10T13:17:25.207Z,76.45
2019-02-10T13:19:53.859Z,77.15
2019-02-10T13:22:22.489Z,77.74
2019-02-10T13:24:51.180Z,77.91
2019-02-10T13:27:19.814Z,78.31
2019-02-10T13:29:48.401Z,78.46
2019-02-10T13:32:17.042Z,78.77
2019-02-10T13:34:45.682Z,79.29
2019-02-10T13:37:14.311Z,78.27
2019-02-10T13:39:42.940Z,77.87
2019-02-10T13:42:12.022Z,77.68
2019-02-10T13:44:40.605Z,77.06
2019-02-10T13:47:09.202Z,77.01
2019-02-10T13:49:37.848Z,77.62
2019-02-10T13:52:06.456Z,76.48
2019-02-10T13:54:35.119Z,75.88
2019-02-10T13:57:03.728Z,75.42
2019-02-10T13:59:32.367Z,75.28
2019-02-10T14:02:01.009Z,75.73
2019-02-10T14:04:29.595Z,75.73
2019-02-10T14:06:58.264Z,76.01
2019-02-10T14:09:26.881Z,78.54
2019-02-10T14:11:55.464Z,78.54
2019-02-10T14:14:24.034Z,78.70
2019-02-10T14:16:52.617Z,78.34
2019-02-10T14:19:21.215Z,78.84
2019-02-10T14:21:49.831Z,77.59
2019-02-10T14:24:18.456Z,78.02
2019-02-10T14:26:47.051Z,77.58
2019-02-10T14:29:15.674Z,77.28
2019-02-10T14:31:44.748Z,77.46
2019-02-10T14:34:13.392Z,77.47
2019-02-10T14:36:42.031Z,77.31
2019-02-10T14:39:10.660Z,77.62
2019-02-10T14:41:39.499Z,77.38
2019-02-10T14:44:08.111Z,76.79
2019-02-10T14:46:36.746Z,77.12
2019-02-10T14:49:05.932Z,75.67
2019-02-10T14:51:34.538Z,76.07
2019-02-10T14:54:03.141Z,75.48
2019-02-10T14:56:31.916Z,75.01
2019-02-10T14:59:00.541Z,75.45
2019-02-10T15:01:30.352Z,74.81
2019-02-10T15:03:59.021Z,74.01
2019-02-10T15:06:27.607Z,74.32
2019-02-10T15:08:56.229Z,73.24
2019-02-10T15:11:24.878Z,73.18
2019-02-10T15:13:53.600Z,70.85
2019-02-10T15:16:22.218Z,71.06
2019-02-10T15:18:50.850Z,69.07
2019-02-10T15:21:19.747Z,70.71
2019-02-10T15:23:48.644Z,70.28
2019-02-10T15:26:17.293Z,69.72
2019-02-10T15:28:45.897Z,70.49
2019-02-10T15:31:14.577Z,70.98
2019-02-10T15:33:43.316Z,71.30
2019-02-10T15:36:11.960Z,69.45
2019-02-10T15:38:40.540Z,67.86
2019-02-10T15:41:09.347Z,66.77
2019-02-10T15:43:37.940Z,65.19
2019-02-10T15:46:06.542Z,65.53
2019-02-10T15:48:35.172Z,66.54
2019-02-10T15:51:03.856Z,66.78
2019-02-10T15:53:32.549Z,67.34
2019-02-10T15:56:01.592Z,67.89
2019-02-10T15:58:30.276Z,68.70
2019-02-10T16:00:59.400Z,69.48
2019-02-10T16:03:28.211Z,69.15
2019-02-10T16:05:56.943Z,69.39
2019-02-10T16:08:25.904Z,69.53
2019-02-10T16:10:58.250Z,70.19
2019-02-10T16:13:27.912Z,69.78
2019-02-10T16:15:56.526Z,69.92
2019-02-10T16:18:25.384Z,70.10
2019-02-10T16:20:53.920Z,70.36
2019-02-10T16:23:22.488Z,70.33
2019-02-10T16:25:51.287Z,69.96
2019-02-10T16:28:19.866Z,69.22
2019-02-10T16:30:48.563Z,68.96
2019-02-10T16:33:17.168Z,68.76
2019-02-10T16:35:45.944Z,68.68
2019-02-10T16:38:14.567Z,68.44
2019-02-10T16:40:45.494Z,68.75
2019-02-10T16:43:14.125Z,67.81
2019-02-10T16:45:42.800Z,68.15
2019-02-10T16:48:11.553Z,67.08
2019-02-10T16:50:40.467Z,67.38
2019-02-10T16:53:09.100Z,67.37
2019-02-10T16:55:37.737Z,67.17
2019-02-10T16:58:06.677Z,67.12
2019-02-10T17:00:35.324Z,67.48
2019-02-10T17:03:04.031Z,67.38
2019-02-10T17:05:33.068Z,66.73
2019-02-10T17:08:01.779Z,66.26
2019-02-10T17:10:30.527Z,66.21
2019-02-10T17:12:59.215Z,66.25
2019-02-10T17:15:27.991Z,66.27
2019-02-10T17:17:56.881Z,65.86
2019-02-10T17:20:25.538Z,66.23
2019-02-10T17:22:57.610Z,66.31
2019-02-10T17:25:26.597Z,67.05
2019-02-10T17:27:55.188Z,68.00
2019-02-10T17:30:23.933Z,68.00
2019-02-10T17:32:52.555Z,70.20
2019-02-10T17:35:21.633Z,71.95
2019-02-10T17:37:50.553Z,72.03
2019-02-10T17:40:26.348Z,72.09
2019-02-10T17:42:54.965Z,72.47
2019-02-10T17:45:23.649Z,72.15
2019-02-10T17:47:52.510Z,72.34
2019-02-10T17:50:21.244Z,72.06
2019-02-10T17:52:49.881Z,71.92
2019-02-10T17:55:18.467Z,72.52
2019-02-10T17:57:47.963Z,70.39
2019-02-10T18:00:17.212Z,70.65
2019-02-10T18:02:45.829Z,70.92
2019-02-10T18:05:14.430Z,70.87
2019-02-10T18:07:43.090Z,69.68
2019-02-10T18:10:12.135Z,69.62
2019-02-10T18:12:40.858Z,70.06
2019-02-10T18:15:26.164Z,70.10
2019-02-10T18:18:16.781Z,70.26
2019-02-10T18:20:58.816Z,69.76
2019-02-10T18:23:43.124Z,69.79
2019-02-10T18:26:43.273Z,69.83
2019-02-10T18:29:22.712Z,69.00
2019-02-10T18:32:08.623Z,68.81
2019-02-10T18:34:48.971Z,69.33
2019-02-10T18:37:25.973Z,68.11
2019-02-10T18:40:09.079Z,68.22
2019-02-10T18:43:00.092Z,67.54
2019-02-10T18:45:46.680Z,67.07
2019-02-10T18:48:31.711Z,67.19
2019-02-10T18:51:06.477Z,67.65
2019-02-10T18:53:58.531Z,67.33
2019-02-10T18:56:46.154Z,67.33
2019-02-10T18:59:40.230Z,67.83
2019-02-10T19:02:35.779Z,68.03
2019-02-10T19:05:15.157Z,68.49
2019-02-10T19:08:11.957Z,68.05
2019-02-10T19:11:17.689Z,67.34
2019-02-10T19:14:05.288Z,67.24
2019-02-10T19:17:05.028Z,67.47
2019-02-10T19:19:43.877Z,67.41
2019-02-10T19:22:30.391Z,67.41
2019-02-10T19:25:20.521Z,67.38
2019-02-10T19:28:26.214Z,67.86
2019-02-10T19:31:16.646Z,67.96
2019-02-10T19:34:00.335Z,68.10
2019-02-10T19:36:46.897Z,67.72
2019-02-10T19:39:52.706Z,67.65
2019-02-10T19:42:31.616Z,66.85
2019-02-10T19:45:25.295Z,66.24
2019-02-10T19:48:10.156Z,66.82
2019-02-10T19:51:03.785Z,67.11
2019-02-10T19:53:52.318Z,67.38
2019-02-10T19:56:55.361Z,67.83
2019-02-10T19:59:51.827Z,67.98
2019-02-10T20:02:42.755Z,68.49
2019-02-10T20:05:23.978Z,69.15
2019-02-10T20:08:14.705Z,69.11
2019-02-10T20:11:05.678Z,69.61
2019-02-10T20:13:43.933Z,69.85
2019-02-10T20:16:23.045Z,70.71
2019-02-10T20:19:10.741Z,70.36
2019-02-10T20:21:58.374Z,70.37
2019-02-10T20:24:53.645Z,71.00
2019-02-10T20:27:43.842Z,70.66
2019-02-10T20:30:33.273Z,70.52
2019-02-10T20:33:27.283Z,70.18
2019-02-10T20:36:24.239Z,70.40
2019-02-10T20:39:14.775Z,70.46
2019-02-10T20:41:47.981Z,70.42
2019-02-10T20:44:41.372Z,70.99
2019-02-10T20:47:21.582Z,70.30
2019-02-10T20:50:12.102Z,70.17
2019-02-10T20:52:59.351Z,69.61
2019-02-10T20:55:56.014Z,68.54
2019-02-10T20:58:44.763Z,67.35
2019-02-10T21:01:22.451Z,66.70
2019-02-10T21:04:07.633Z,65.80
2019-02-10T21:06:54.400Z,65.74
2019-02-10T21:09:42.053Z,64.67
2019-02-10T21:12:25.269Z,64.34
2019-02-10T21:15:12.934Z,64.42
2019-02-10T21:17:54.886Z,64.37
2019-02-10T21:20:42.623Z,63.79
2019-02-10T21:23:24.221Z,64.06
2019-02-10T21:26:06.767Z,63.97
2019-02-10T21:28:57.158Z,63.66
2019-02-10T21:31:56.760Z,63.60
2019-02-10T21:34:37.914Z,63.28
2019-02-10T21:37:23.632Z,63.46
2019-02-10T21:40:11.203Z,63.02
2019-02-10T21:42:58.848Z,63.28
2019-02-10T21:45:46.470Z,63.01
2019-02-10T21:48:37.123Z,62.32
2019-02-10T21:51:05.753Z,62.75
2019-02-10T21:53:34.387Z,62.62
2019-02-10T21:56:02.943Z,62.13
2019-02-10T21:58:31.535Z,62.18
2019-02-10T22:01:00.281Z,61.27
2019-02-10T22:03:28.889Z,61.39
2019-02-10T22:05:57.612Z,61.23
2019-02-10T22:08:26.222Z,61.48
2019-02-10T22:10:54.797Z,61.44
2019-02-10T22:13:23.400Z,61.80
2019-02-10T22:15:52.026Z,61.67
2019-02-10T22:18:20.648Z,61.46
2019-02-10T22:20:49.261Z,61.20
2019-02-10T22:23:17.947Z,61.13
2019-02-10T22:25:46.604Z,61.82
2019-02-10T22:28:15.214Z,62.06
2019-02-10T22:30:43.863Z,62.52
2019-02-10T22:33:12.512Z,61.82
2019-02-10T22:35:41.106Z,62.16
2019-02-10T22:38:09.722Z,61.80
2019-02-10T22:40:38.307Z,61.81
2019-02-10T22:43:06.961Z,62.09
2019-02-10T22:45:35.583Z,62.00
2019-02-10T22:48:04.266Z,61.71
2019-02-10T22:50:32.893Z,62.05
2019-02-10T22:53:01.739Z,61.62
2019-02-10T22:55:30.345Z,61.01
2019-02-10T22:57:58.989Z,61.20
2019-02-10T23:00:50.479Z,60.95
2019-02-10T23:03:19.105Z,61.04
2019-02-10T23:05:47.818Z,60.81
2019-02-10T23:08:16.535Z,60.79
2019-02-10T23:10:45.105Z,60.94
2019-02-10T23:13:13.763Z,60.61
2019-02-10T23:15:42.338Z,60.54
2019-02-10T23:18:10.898Z,61.13
2019-02-10T23:20:39.526Z,61.07
2019-02-10T23:23:08.206Z,60.73
2019-02-10T23:25:36.850Z,60.74
2019-02-10T23:28:05.439Z,60.85
2019-02-10T23:30:34.053Z,60.88
2019-02-10T23:33:02.726Z,60.66
2019-02-10T23:35:31.321Z,60.89
2019-02-10T23:37:59.903Z,60.85
2019-02-10T23:40:28.533Z,60.88
2019-02-10T23:43:02.223Z,61.42
2019-02-10T23:45:27.500Z,61.02
2019-02-10T23:47:56.192Z,61.19
2019-02-10T23:50:24.806Z,61.00
2019-02-10T23:52:53.428Z,61.57
2019-02-10T23:55:22.015Z,60.60
2019-02-10T23:57:50.598Z,60.80
